Time;durP1;ratioP1;P1;durP2;ratioP2;P2;SDS_P1;SDS_P2;PMS_P1;PMS_P2;Temp;Humidity;BMP_temperature;BMP_pressure;BME280_temperature;BME280_humidity;BME280_pressure;Samples;Min_cycle;Max_cycle;Signal;HPM_P1;HPM_P2
2023/12/27 00:01:19;;;;;;;13.27;3.25;;;2.00;99.90;;;;;;7366744;19;20030;-74
2023/12/27 00:03:45;;;;;;;12.35;3.80;;;2.00;99.90;;;;;;7363284;19;20043;-72
2023/12/27 00:06:12;;;;;;;14.93;3.70;;;2.00;99.90;;;;;;7361454;19;20011;-72
2023/12/27 00:08:38;;;;;;;10.35;3.22;;;2.00;99.90;;;;;;7364628;19;20128;-72
2023/12/27 00:11:04;;;;;;;14.50;3.33;;;2.00;99.90;;;;;;7366058;19;20030;-73
2023/12/27 00:13:30;;;;;;;8.18;3.45;;;2.00;99.90;;;;;;7367699;19;20025;-72
2023/12/27 00:15:57;;;;;;;8.00;3.05;;;2.00;99.90;;;;;;7365535;19;20018;-73
2023/12/27 00:18:24;;;;;;;15.32;3.60;;;1.90;99.90;;;;;;7365546;19;20022;-63
2023/12/27 00:20:50;;;;;;;12.93;3.63;;;1.90;99.90;;;;;;7362540;19;20014;-64
2023/12/27 00:23:16;;;;;;;9.82;3.55;;;1.90;99.90;;;;;;7357245;19;20022;-72
2023/12/27 00:25:43;;;;;;;12.85;3.60;;;1.90;99.90;;;;;;7365267;19;20122;-73
2023/12/27 00:28:09;;;;;;;9.82;4.43;;;1.80;99.90;;;;;;7358951;19;20002;-73
2023/12/27 00:30:38;;;;;;;19.15;4.18;;;1.80;99.90;;;;;;7360927;19;20023;-72
2023/12/27 00:33:04;;;;;;;10.15;3.45;;;1.80;99.90;;;;;;7359995;19;20025;-73
2023/12/27 00:35:30;;;;;;;14.48;3.92;;;1.70;99.90;;;;;;7364753;19;20015;-73
2023/12/27 00:38:16;;;;;;;13.98;5.03;;;1.80;99.90;;;;;;7361334;19;20053;-73
2023/12/27 00:40:43;;;;;;;12.82;4.65;;;1.70;99.90;;;;;;7365053;19;20493;-73
2023/12/27 00:43:10;;;;;;;11.85;5.55;;;1.60;99.90;;;;;;7356618;19;20039;-73
2023/12/27 00:45:37;;;;;;;20.88;6.18;;;1.60;99.90;;;;;;7367984;19;20082;-73
2023/12/27 00:48:05;;;;;;;18.67;6.25;;;1.60;99.90;;;;;;7362817;19;20014;-73
2023/12/27 00:50:31;;;;;;;16.77;6.68;;;1.60;99.90;;;;;;7362813;19;20026;-73
2023/12/27 00:52:57;;;;;;;16.58;6.63;;;1.60;99.90;;;;;;7365314;19;20765;-73
2023/12/27 00:55:23;;;;;;;17.65;7.68;;;1.60;99.90;;;;;;7361511;19;20097;-73
2023/12/27 00:57:50;;;;;;;16.55;8.05;;;1.60;99.90;;;;;;7358503;19;20090;-73
2023/12/27 01:00:16;;;;;;;23.33;8.02;;;1.60;99.90;;;;;;7369759;19;20014;-73
2023/12/27 01:02:42;;;;;;;19.02;8.23;;;1.60;99.90;;;;;;7363438;19;20019;-73
2023/12/27 01:05:09;;;;;;;25.35;9.65;;;1.70;99.90;;;;;;7365946;19;20018;-73
2023/12/27 01:07:36;;;;;;;17.10;7.45;;;1.70;99.90;;;;;;7360532;19;20022;-73
2023/12/27 01:10:05;;;;;;;15.98;7.80;;;1.60;99.90;;;;;;7364227;19;20030;-73
2023/12/27 01:12:31;;;;;;;26.27;8.77;;;1.60;99.90;;;;;;7352305;19;21068;-73
2023/12/27 01:14:58;;;;;;;27.58;9.20;;;1.60;99.90;;;;;;7365753;19;20018;-74
2023/12/27 01:17:25;;;;;;;22.55;9.07;;;1.70;99.90;;;;;;7354511;19;20018;-73
2023/12/27 01:19:51;;;;;;;19.77;9.30;;;1.70;99.90;;;;;;7363055;19;20045;-74
2023/12/27 01:22:17;;;;;;;18.20;8.77;;;1.70;99.90;;;;;;7351225;19;20018;-73
2023/12/27 01:24:45;;;;;;;23.33;9.00;;;1.70;99.90;;;;;;7362143;19;20015;-63
2023/12/27 01:27:12;;;;;;;17.95;9.65;;;1.70;99.90;;;;;;7357315;19;20025;-64
2023/12/27 01:29:38;;;;;;;19.40;9.40;;;1.70;99.90;;;;;;7356838;19;20062;-64
2023/12/27 01:32:05;;;;;;;24.42;9.02;;;1.70;99.90;;;;;;7358187;19;20026;-63
2023/12/27 01:34:31;;;;;;;22.17;9.43;;;1.70;99.90;;;;;;7360727;19;20893;-73
2023/12/27 01:36:57;;;;;;;16.83;8.32;;;1.60;99.90;;;;;;7361491;19;20022;-64
2023/12/27 01:39:24;;;;;;;26.17;10.40;;;1.70;99.90;;;;;;7363112;19;20577;-73
2023/12/27 01:41:51;;;;;;;24.77;10.38;;;1.60;99.90;;;;;;7356949;19;20025;-64
2023/12/27 01:44:37;;;;;;;23.83;10.35;;;1.60;99.90;;;;;;7360203;19;20015;-64
2023/12/27 01:47:04;;;;;;;19.13;9.18;;;1.60;99.90;;;;;;7360672;19;20070;-64
2023/12/27 01:49:31;;;;;;;18.70;9.10;;;1.60;99.90;;;;;;7370841;19;20106;-64
2023/12/27 01:51:57;;;;;;;23.40;10.05;;;1.60;99.90;;;;;;7361139;19;20196;-64
2023/12/27 01:54:23;;;;;;;20.92;9.93;;;1.60;99.90;;;;;;7368785;19;20006;-74
2023/12/27 01:56:50;;;;;;;25.02;10.45;;;1.60;99.90;;;;;;7367348;19;20021;-73
2023/12/27 01:59:17;;;;;;;18.63;9.93;;;1.50;99.90;;;;;;7367659;19;20026;-74
2023/12/27 02:01:43;;;;;;;21.75;9.68;;;1.50;99.90;;;;;;7366004;19;20050;-74
2023/12/27 02:04:10;;;;;;;20.50;10.30;;;1.50;99.90;;;;;;7366991;19;20018;-73
2023/12/27 02:06:37;;;;;;;20.33;9.55;;;1.40;99.90;;;;;;7367618;19;20034;-73
2023/12/27 02:09:04;;;;;;;24.05;9.88;;;1.40;99.90;;;;;;7366835;19;20015;-73
2023/12/27 02:11:31;;;;;;;21.55;9.73;;;1.40;99.90;;;;;;7365751;19;20649;-73
2023/12/27 02:13:58;;;;;;;22.52;10.82;;;1.30;99.90;;;;;;7367874;19;20086;-73
2023/12/27 02:16:24;;;;;;;19.38;9.77;;;1.30;99.90;;;;;;7367297;19;20792;-64
2023/12/27 02:18:54;;;;;;;17.48;9.82;;;1.30;99.90;;;;;;7361837;19;21413;-73
2023/12/27 02:21:40;;;;;;;23.58;10.65;;;1.30;99.90;;;;;;7365704;19;20039;-64
2023/12/27 02:24:09;;;;;;;21.38;9.90;;;1.30;99.90;;;;;;7366134;19;20075;-64
2023/12/27 02:26:36;;;;;;;23.33;9.48;;;1.20;99.90;;;;;;7367494;19;20117;-64
2023/12/27 02:29:04;;;;;;;21.60;10.25;;;1.20;99.90;;;;;;7372931;19;20025;-74
2023/12/27 02:31:30;;;;;;;24.63;10.15;;;1.20;99.90;;;;;;7375339;19;20018;-74
2023/12/27 02:33:58;;;;;;;20.38;10.38;;;1.10;99.90;;;;;;7373549;19;20362;-73
2023/12/27 02:36:25;;;;;;;24.83;11.32;;;1.10;99.90;;;;;;7378375;19;20401;-64
2023/12/27 02:38:51;;;;;;;26.92;10.55;;;1.20;99.90;;;;;;7371992;19;20018;-64
2023/12/27 02:41:19;;;;;;;17.88;9.38;;;1.20;99.90;;;;;;7377705;19;20028;-64
2023/12/27 02:43:46;;;;;;;22.27;9.93;;;1.10;99.90;;;;;;7370631;19;20018;-64
2023/12/27 02:46:12;;;;;;;18.25;10.93;;;1.10;99.90;;;;;;7375428;19;20753;-64
2023/12/27 02:48:39;;;;;;;24.63;10.60;;;1.10;99.90;;;;;;7373435;19;20018;-65
2023/12/27 02:51:06;;;;;;;25.45;11.65;;;1.10;99.90;;;;;;7375206;19;20018;-73
2023/12/27 02:53:32;;;;;;;23.60;11.07;;;1.10;99.90;;;;;;7369366;19;20014;-73
2023/12/27 02:56:18;;;;;;;21.25;10.48;;;1.20;99.90;;;;;;7374732;19;20018;-73
2023/12/27 02:58:45;;;;;;;21.77;10.07;;;1.20;99.90;;;;;;7373540;19;20035;-74
2023/12/27 03:01:13;;;;;;;25.95;11.75;;;1.30;99.90;;;;;;7375120;19;20033;-74
2023/12/27 03:03:40;;;;;;;17.40;11.95;;;1.40;99.90;;;;;;7374561;19;20034;-64
2023/12/27 03:06:06;;;;;;;27.48;11.55;;;1.40;99.90;;;;;;7370014;19;20059;-64
2023/12/27 03:08:35;;;;;;;20.80;11.68;;;1.40;99.90;;;;;;7371495;19;20021;-64
2023/12/27 03:11:02;;;;;;;31.00;13.95;;;1.50;99.90;;;;;;7370799;19;20022;-64
2023/12/27 03:13:28;;;;;;;22.17;12.18;;;1.50;99.90;;;;;;7374550;19;20054;-73
2023/12/27 03:15:54;;;;;;;29.20;12.30;;;1.50;99.90;;;;;;7370409;19;20019;-73
2023/12/27 03:18:21;;;;;;;32.47;13.35;;;1.60;99.90;;;;;;7375380;19;20126;-73
2023/12/27 03:20:48;;;;;;;28.73;13.25;;;1.60;99.90;;;;;;7372496;19;20026;-73
2023/12/27 03:23:14;;;;;;;23.33;12.35;;;1.60;99.90;;;;;;7372863;19;20010;-64
2023/12/27 03:25:44;;;;;;;21.95;11.23;;;1.60;99.90;;;;;;7370770;19;20799;-64
2023/12/27 03:28:10;;;;;;;22.65;12.70;;;1.60;99.90;;;;;;7371268;19;20022;-64
2023/12/27 03:30:37;;;;;;;19.73;11.38;;;1.60;99.90;;;;;;7375068;19;20019;-73
2023/12/27 03:33:03;;;;;;;18.77;11.55;;;1.60;99.90;;;;;;7368725;19;20022;-73
2023/12/27 03:35:30;;;;;;;17.35;10.82;;;1.50;99.90;;;;;;7372752;19;20113;-73
2023/12/27 03:37:57;;;;;;;18.40;10.55;;;1.50;99.90;;;;;;7370268;19;20588;-73
2023/12/27 03:40:23;;;;;;;23.02;11.00;;;1.40;99.90;;;;;;7371196;19;20792;-64
2023/12/27 03:42:49;;;;;;;18.05;10.88;;;1.40;99.90;;;;;;7374199;19;20741;-63
2023/12/27 03:45:17;;;;;;;23.55;11.00;;;1.40;99.90;;;;;;7372797;19;20767;-73
2023/12/27 03:47:45;;;;;;;17.85;11.00;;;1.40;99.90;;;;;;7372443;19;20019;-73
2023/12/27 03:50:13;;;;;;;23.70;11.02;;;1.40;99.90;;;;;;7372339;19;20093;-73
2023/12/27 03:52:43;;;;;;;23.75;10.82;;;1.40;99.90;;;;;;7370424;19;20015;-74
2023/12/27 03:55:10;;;;;;;27.45;12.15;;;1.40;99.90;;;;;;7375457;19;20040;-73
2023/12/27 03:57:39;;;;;;;17.05;10.75;;;1.40;99.90;;;;;;7371595;19;20043;-64
2023/12/27 04:00:06;;;;;;;19.80;10.90;;;1.40;99.90;;;;;;7377902;19;20018;-64
2023/12/27 04:02:34;;;;;;;21.38;11.27;;;1.40;99.90;;;;;;7375672;19;20023;-73
2023/12/27 04:05:20;;;;;;;22.77;12.32;;;1.40;99.90;;;;;;7374048;19;20478;-73
2023/12/27 04:07:46;;;;;;;16.77;9.95;;;1.50;99.90;;;;;;7374455;19;20022;-64
2023/12/27 04:10:16;;;;;;;24.25;11.95;;;1.50;99.90;;;;;;7374071;19;20026;-73
2023/12/27 04:12:42;;;;;;;20.17;11.60;;;1.50;99.90;;;;;;7367273;19;20335;-73
2023/12/27 04:15:09;;;;;;;26.90;12.07;;;1.50;99.90;;;;;;7372881;19;20773;-64
2023/12/27 04:17:35;;;;;;;33.47;12.95;;;1.50;99.90;;;;;;7370461;19;20040;-64
2023/12/27 04:20:02;;;;;;;22.33;13.35;;;1.50;99.90;;;;;;7367852;19;20031;-64
2023/12/27 04:22:29;;;;;;;23.90;12.88;;;1.50;99.90;;;;;;7372321;19;20025;-64
2023/12/27 04:24:55;;;;;;;25.50;12.68;;;1.60;99.90;;;;;;7365512;19;21103;-64
2023/12/27 04:27:22;;;;;;;19.90;12.15;;;1.60;99.90;;;;;;7373632;19;20030;-73
2023/12/27 04:29:48;;;;;;;25.85;13.23;;;1.60;99.90;;;;;;7363486;19;20499;-73
2023/12/27 04:32:15;;;;;;;26.73;12.57;;;1.60;99.90;;;;;;7371998;19;20018;-73
2023/12/27 04:34:42;;;;;;;23.98;12.68;;;1.60;99.90;;;;;;7366701;19;20029;-64
2023/12/27 04:37:08;;;;;;;26.50;12.65;;;1.70;99.90;;;;;;7368077;19;20082;-64
2023/12/27 04:39:35;;;;;;;25.90;13.27;;;1.60;99.90;;;;;;7371566;19;20501;-73
2023/12/27 04:42:01;;;;;;;20.73;12.35;;;1.70;99.90;;;;;;7364837;19;20019;-65
2023/12/27 04:44:27;;;;;;;21.65;12.07;;;1.70;99.90;;;;;;7371099;19;20382;-73
2023/12/27 04:46:53;;;;;;;22.38;11.07;;;1.60;99.90;;;;;;7363775;19;20592;-73
2023/12/27 04:49:20;;;;;;;21.52;12.88;;;1.70;99.90;;;;;;7370507;19;20006;-73
2023/12/27 04:51:47;;;;;;;21.80;10.90;;;1.70;99.90;;;;;;7366901;19;20026;-64
2023/12/27 04:54:14;;;;;;;22.20;10.95;;;1.60;99.90;;;;;;7367772;19;20108;-64
2023/12/27 04:56:42;;;;;;;20.63;12.00;;;1.60;99.90;;;;;;7368960;19;20042;-64
2023/12/27 04:59:08;;;;;;;22.90;11.05;;;1.70;99.90;;;;;;7364135;19;20496;-64
2023/12/27 05:01:34;;;;;;;21.05;11.95;;;1.70;99.90;;;;;;7367050;19;20376;-64
2023/12/27 05:04:00;;;;;;;21.30;11.75;;;1.70;99.90;;;;;;7363747;19;20090;-72
2023/12/27 05:06:27;;;;;;;17.48;11.43;;;1.70;99.90;;;;;;7369067;19;20449;-73
2023/12/27 05:08:53;;;;;;;22.85;12.55;;;1.70;99.90;;;;;;7362236;19;20116;-64
2023/12/27 05:11:20;;;;;;;19.42;11.98;;;1.70;99.90;;;;;;7363350;19;21014;-64
2023/12/27 05:13:46;;;;;;;17.58;11.95;;;1.70;99.90;;;;;;7365808;19;20018;-64
2023/12/27 05:16:14;;;;;;;18.50;11.30;;;1.70;99.90;;;;;;7364251;19;20418;-64
2023/12/27 05:18:43;;;;;;;21.30;12.35;;;1.70;99.90;;;;;;7368630;19;20029;-73
2023/12/27 05:21:10;;;;;;;18.15;11.65;;;1.70;99.90;;;;;;7365346;19;20078;-73
2023/12/27 05:23:38;;;;;;;23.50;12.30;;;1.70;99.90;;;;;;7366704;19;20027;-73
2023/12/27 05:26:05;;;;;;;25.42;12.93;;;1.80;99.90;;;;;;7362863;19;20883;-73
2023/12/27 05:28:32;;;;;;;26.65;12.65;;;1.80;99.90;;;;;;7367452;19;20031;-73
2023/12/27 05:30:59;;;;;;;21.95;12.30;;;1.80;99.90;;;;;;7365824;19;20010;-72
2023/12/27 05:33:25;;;;;;;23.58;13.07;;;1.80;99.90;;;;;;7367907;19;20802;-73
2023/12/27 05:35:52;;;;;;;20.13;12.77;;;1.80;99.90;;;;;;7366455;19;20812;-73
2023/12/27 05:38:18;;;;;;;21.38;13.18;;;1.90;99.90;;;;;;7364685;19;20022;-64
2023/12/27 05:40:44;;;;;;;21.83;13.25;;;1.90;99.90;;;;;;7371148;19;20038;-73
2023/12/27 05:43:10;;;;;;;31.52;16.15;;;2.00;99.90;;;;;;7366686;19;21754;-64
2023/12/27 05:45:37;;;;;;;24.80;15.20;;;2.00;99.90;;;;;;7366487;19;20031;-64
2023/12/27 05:48:04;;;;;;;28.00;17.10;;;2.00;99.90;;;;;;7366297;19;20018;-64
2023/12/27 05:50:30;;;;;;;28.45;17.55;;;2.10;99.90;;;;;;7364728;19;20026;-64
2023/12/27 05:52:56;;;;;;;27.20;18.25;;;2.10;99.90;;;;;;7364891;19;20026;-64
2023/12/27 05:55:23;;;;;;;27.58;19.30;;;2.20;99.90;;;;;;7364016;19;20070;-64
2023/12/27 05:57:49;;;;;;;31.75;21.60;;;2.20;99.90;;;;;;7366199;19;20029;-64
2023/12/27 06:00:16;;;;;;;37.15;21.42;;;2.30;99.90;;;;;;7366792;19;20022;-64
2023/12/27 06:02:42;;;;;;;42.28;23.42;;;2.30;99.90;;;;;;7363273;19;20018;-73
2023/12/27 06:05:12;;;;;;;35.47;21.10;;;2.40;99.90;;;;;;7362992;19;21169;-73
2023/12/27 06:07:38;;;;;;;36.72;21.73;;;2.40;99.90;;;;;;7365592;19;20019;-72
2023/12/27 06:10:05;;;;;;;40.75;20.85;;;2.40;99.90;;;;;;7361418;19;20026;-73
2023/12/27 06:12:31;;;;;;;36.50;21.70;;;2.50;99.90;;;;;;7370777;19;20371;-73
2023/12/27 06:14:59;;;;;;;34.60;19.70;;;2.50;99.90;;;;;;7361744;19;20026;-72
2023/12/27 06:17:25;;;;;;;37.03;19.70;;;2.60;99.90;;;;;;7367399;19;20128;-72
2023/12/27 06:19:51;;;;;;;30.58;19.17;;;2.60;99.90;;;;;;7364086;19;20022;-72
2023/12/27 06:22:18;;;;;;;37.28;20.55;;;2.70;99.90;;;;;;7365846;19;20390;-64
2023/12/27 06:24:44;;;;;;;41.08;21.58;;;2.70;99.90;;;;;;7364742;19;20022;-64
2023/12/27 06:27:12;;;;;;;34.38;20.80;;;2.80;99.90;;;;;;7361934;19;20852;-64
2023/12/27 06:29:39;;;;;;;29.15;16.95;;;2.80;99.90;;;;;;7363699;19;20026;-65
2023/12/27 06:32:05;;;;;;;39.53;20.95;;;2.90;99.90;;;;;;7364362;19;20363;-64
2023/12/27 06:34:32;;;;;;;35.15;19.80;;;2.90;99.90;;;;;;7365657;19;20089;-64
2023/12/27 06:36:58;;;;;;;37.13;20.27;;;2.90;99.90;;;;;;7364003;19;20021;-65
2023/12/27 06:39:25;;;;;;;32.92;19.75;;;2.90;99.90;;;;;;7367859;19;20470;-64
2023/12/27 06:41:51;;;;;;;34.35;18.55;;;2.90;99.90;;;;;;7362456;19;20011;-64
2023/12/27 06:44:17;;;;;;;42.85;19.35;;;2.90;99.90;;;;;;7364605;19;20081;-63
2023/12/27 06:46:44;;;;;;;35.42;19.23;;;2.90;99.90;;;;;;7365193;19;20025;-65
2023/12/27 06:49:10;;;;;;;35.13;17.80;;;3.00;99.90;;;;;;7363521;19;20033;-63
2023/12/27 06:51:36;;;;;;;42.03;19.73;;;3.00;99.90;;;;;;7366769;19;20010;-64
2023/12/27 06:54:02;;;;;;;36.95;19.77;;;3.00;99.90;;;;;;7366587;19;20019;-71
2023/12/27 06:56:29;;;;;;;33.97;19.63;;;3.10;99.90;;;;;;7366181;19;20077;-64
2023/12/27 06:58:56;;;;;;;31.17;18.98;;;3.10;99.90;;;;;;7365357;19;20014;-64
2023/12/27 07:01:22;;;;;;;35.67;19.02;;;3.10;99.90;;;;;;7367300;19;20033;-64
2023/12/27 07:03:48;;;;;;;28.90;18.55;;;3.10;99.90;;;;;;7363393;19;20010;-72
2023/12/27 07:06:14;;;;;;;33.75;19.63;;;3.10;99.90;;;;;;7363269;19;20025;-72
2023/12/27 07:09:02;;;;;;;39.85;19.00;;;3.20;99.90;;;;;;7362986;19;20018;-72
2023/12/27 07:11:29;;;;;;;34.78;19.63;;;3.20;99.90;;;;;;7362164;19;20022;-72
2023/12/27 07:13:55;;;;;;;34.70;19.80;;;3.20;99.90;;;;;;7366075;19;20629;-72
2023/12/27 07:16:21;;;;;;;32.83;18.25;;;3.30;99.90;;;;;;7371745;19;20028;-72
2023/12/27 07:18:47;;;;;;;31.63;17.10;;;3.30;99.90;;;;;;7372213;19;20497;-73
2023/12/27 07:21:14;;;;;;;25.13;16.13;;;3.30;99.90;;;;;;7374352;19;20491;-63
2023/12/27 07:23:40;;;;;;;29.45;15.15;;;3.50;99.90;;;;;;7373661;19;20518;-73
2023/12/27 07:26:11;;;;;;;28.83;16.92;;;3.60;99.90;;;;;;7369513;19;20014;-73
2023/12/27 07:28:38;;;;;;;28.23;16.88;;;3.60;99.90;;;;;;7367984;19;20419;-64
2023/12/27 07:31:04;;;;;;;26.25;16.85;;;3.60;99.90;;;;;;7373971;19;20025;-72
2023/12/27 07:33:30;;;;;;;28.08;17.65;;;3.60;99.90;;;;;;7371331;19;20351;-72
2023/12/27 07:35:56;;;;;;;28.70;16.27;;;3.60;99.90;;;;;;7370592;19;20111;-72
2023/12/27 07:38:24;;;;;;;35.30;16.73;;;3.70;99.90;;;;;;7370342;19;20014;-65
2023/12/27 07:40:51;;;;;;;33.80;16.00;;;3.70;99.90;;;;;;7369529;19;20049;-64
2023/12/27 07:43:20;;;;;;;31.75;16.73;;;3.70;99.90;;;;;;7370792;19;20022;-64
2023/12/27 07:45:46;;;;;;;27.00;14.63;;;3.70;99.90;;;;;;7371966;19;21701;-64
2023/12/27 07:48:13;;;;;;;35.88;16.42;;;3.80;99.90;;;;;;7372010;19;20028;-64
2023/12/27 07:50:40;;;;;;;28.15;15.20;;;3.80;99.90;;;;;;7370845;19;20014;-64
2023/12/27 07:53:06;;;;;;;29.48;15.20;;;3.90;99.90;;;;;;7368723;19;21590;-64
2023/12/27 07:55:32;;;;;;;36.03;16.17;;;3.90;99.90;;;;;;7372804;19;20386;-64
2023/12/27 07:57:59;;;;;;;28.30;15.30;;;3.90;99.90;;;;;;7370011;19;20027;-65
2023/12/27 08:00:28;;;;;;;33.92;15.18;;;4.00;99.90;;;;;;7371965;19;20378;-72
2023/12/27 08:02:55;;;;;;;25.85;13.80;;;4.00;99.90;;;;;;7367372;19;20018;-72
2023/12/27 08:05:21;;;;;;;25.30;13.50;;;4.10;99.90;;;;;;7368836;19;20018;-67
2023/12/27 08:07:47;;;;;;;25.05;13.63;;;4.10;99.90;;;;;;7370134;19;20461;-67
2023/12/27 08:10:13;;;;;;;22.23;13.57;;;4.10;99.90;;;;;;7369463;19;20082;-64
2023/12/27 08:12:40;;;;;;;26.23;14.00;;;4.20;99.90;;;;;;7369993;19;20022;-64
2023/12/27 08:15:07;;;;;;;21.95;12.80;;;4.20;99.90;;;;;;7369764;19;20022;-64
2023/12/27 08:17:33;;;;;;;23.65;12.38;;;4.20;99.90;;;;;;7369171;19;20034;-71
2023/12/27 08:20:00;;;;;;;27.73;12.40;;;4.30;99.90;;;;;;7370978;19;20019;-71
2023/12/27 08:22:26;;;;;;;22.80;11.15;;;4.30;99.90;;;;;;7372645;19;22583;-64
2023/12/27 08:24:52;;;;;;;21.77;11.23;;;4.40;99.90;;;;;;7366502;19;20029;-64
2023/12/27 08:27:19;;;;;;;19.63;12.30;;;4.40;99.90;;;;;;7371442;19;20029;-64
2023/12/27 08:29:45;;;;;;;27.20;11.95;;;4.40;99.90;;;;;;7366993;19;20022;-64
2023/12/27 08:32:11;;;;;;;24.77;11.52;;;4.40;99.90;;;;;;7370296;19;20019;-64
2023/12/27 08:34:38;;;;;;;26.05;12.65;;;4.40;99.90;;;;;;7369441;19;20014;-66
2023/12/27 08:37:04;;;;;;;26.73;11.57;;;4.40;99.90;;;;;;7371042;19;20035;-64
2023/12/27 08:39:30;;;;;;;22.90;12.00;;;4.50;99.90;;;;;;7368972;19;20018;-64
2023/12/27 08:41:57;;;;;;;27.30;12.32;;;4.50;99.90;;;;;;7366859;19;20924;-64
2023/12/27 08:44:23;;;;;;;23.33;11.45;;;4.50;99.90;;;;;;7370489;19;20696;-72
2023/12/27 08:46:49;;;;;;;28.20;13.00;;;4.50;99.90;;;;;;7368900;19;20018;-72
2023/12/27 08:49:16;;;;;;;21.95;11.75;;;4.50;99.90;;;;;;7371028;19;20078;-69
2023/12/27 08:52:02;;;;;;;18.88;11.82;;;4.60;99.90;;;;;;7367957;19;20019;-63
2023/12/27 08:54:28;;;;;;;22.15;11.70;;;4.70;99.90;;;;;;7371615;19;20761;-63
2023/12/27 08:56:55;;;;;;;17.17;12.05;;;4.60;99.90;;;;;;7367894;19;20049;-64
2023/12/27 08:59:22;;;;;;;25.95;12.73;;;4.70;99.90;;;;;;7371454;19;20039;-64
2023/12/27 09:01:49;;;;;;;22.67;11.43;;;4.60;99.90;;;;;;7370152;19;20016;-65
2023/12/27 09:04:15;;;;;;;28.10;12.82;;;4.70;99.90;;;;;;7372467;19;20028;-64
2023/12/27 09:06:43;;;;;;;24.00;13.90;;;4.70;99.90;;;;;;7370040;19;20038;-64
2023/12/27 09:09:11;;;;;;;26.92;14.30;;;4.80;99.90;;;;;;7371600;19;20010;-71
2023/12/27 09:11:38;;;;;;;21.20;13.02;;;4.80;99.90;;;;;;7368184;19;20014;-64
2023/12/27 09:14:05;;;;;;;25.30;13.60;;;4.80;99.90;;;;;;7371845;19;20014;-72
2023/12/27 09:16:31;;;;;;;24.13;13.43;;;4.80;99.90;;;;;;7367621;19;20471;-71
2023/12/27 09:18:59;;;;;;;22.20;14.10;;;4.80;99.90;;;;;;7368130;19;20022;-72
2023/12/27 09:21:28;;;;;;;24.02;14.27;;;4.80;99.90;;;;;;7371828;19;20777;-67
2023/12/27 09:23:54;;;;;;;23.02;13.07;;;4.90;99.90;;;;;;7368048;19;20762;-73
2023/12/27 09:26:23;;;;;;;20.20;14.55;;;4.90;99.90;;;;;;7371809;19;20508;-72
2023/12/27 09:29:10;;;;;;;26.08;15.45;;;4.90;99.90;;;;;;7370079;19;20085;-65
2023/12/27 09:31:36;;;;;;;26.95;14.20;;;5.00;99.90;;;;;;7368429;19;20022;-64
2023/12/27 09:34:03;;;;;;;25.73;15.20;;;5.00;99.90;;;;;;7371723;19;20387;-64
2023/12/27 09:36:29;;;;;;;29.63;17.15;;;5.00;99.90;;;;;;7367528;19;20018;-65
2023/12/27 09:38:55;;;;;;;25.80;15.07;;;5.00;99.90;;;;;;7365865;19;20022;-64
2023/12/27 09:41:42;;;;;;;31.38;20.23;;;5.10;99.90;;;;;;7368126;19;20021;-65
2023/12/27 09:44:12;;;;;;;26.42;14.82;;;5.10;99.90;;;;;;7372295;19;20331;-72
2023/12/27 09:46:39;;;;;;;27.80;15.60;;;5.10;99.90;;;;;;7371132;19;20018;-73
2023/12/27 09:49:26;;;;;;;30.40;16.10;;;5.20;99.90;;;;;;7368808;19;20053;-64
2023/12/27 09:51:55;;;;;;;26.17;14.90;;;5.20;99.90;;;;;;7369154;19;20029;-64
2023/12/27 09:54:22;;;;;;;25.38;14.05;;;5.20;99.90;;;;;;7364647;19;20493;-72
2023/12/27 09:56:49;;;;;;;24.90;13.98;;;5.20;99.90;;;;;;7372436;19;20023;-65
2023/12/27 09:59:24;;;;;;;23.83;13.88;;;5.20;99.90;;;;;;7375289;19;20021;-72
2023/12/27 10:02:00;;;;;;;22.55;15.13;;;5.30;99.90;;;;;;7370339;19;20049;-72
2023/12/27 10:04:44;;;;;;;18.58;13.38;;;5.30;99.90;;;;;;7369584;19;20015;-72
2023/12/27 10:07:12;;;;;;;25.85;13.20;;;5.40;99.90;;;;;;7372440;19;20051;-72
2023/12/27 10:09:39;;;;;;;24.50;12.98;;;5.40;99.90;;;;;;7365914;19;20011;-64
2023/12/27 10:12:10;;;;;;;24.45;14.93;;;5.40;99.90;;;;;;7369793;19;20030;-64
2023/12/27 10:14:37;;;;;;;22.20;13.40;;;5.40;99.90;;;;;;7371614;19;20017;-65
2023/12/27 10:17:04;;;;;;;18.42;12.43;;;5.40;99.90;;;;;;7369792;19;20395;-64
2023/12/27 10:19:41;;;;;;;28.10;14.15;;;5.50;99.90;;;;;;7366462;19;20014;-64
2023/12/27 10:22:09;;;;;;;21.73;14.27;;;5.50;99.90;;;;;;7366361;19;20046;-64
2023/12/27 10:24:36;;;;;;;20.23;14.52;;;5.50;99.90;;;;;;7371556;19;20031;-64
2023/12/27 10:27:04;;;;;;;25.17;14.18;;;5.50;99.90;;;;;;7367030;19;20833;-65
2023/12/27 10:29:33;;;;;;;25.15;15.02;;;5.50;99.90;;;;;;7363542;19;20395;-64
2023/12/27 10:32:01;;;;;;;21.48;13.95;;;5.50;99.90;;;;;;7366741;19;20021;-66
2023/12/27 10:34:28;;;;;;;27.25;14.02;;;5.50;99.90;;;;;;7374436;19;20377;-70
2023/12/27 10:36:56;;;;;;;21.75;14.20;;;5.50;99.90;;;;;;7366913;19;20082;-66
2023/12/27 10:39:25;;;;;;;28.52;13.43;;;5.50;99.90;;;;;;7367972;19;20018;-70
2023/12/27 10:41:52;;;;;;;27.15;13.52;;;5.40;99.90;;;;;;7372270;19;20022;-69
2023/12/27 10:44:19;;;;;;;27.33;14.48;;;5.40;99.90;;;;;;7372875;19;20018;-68
2023/12/27 10:46:51;;;;;;;24.75;13.50;;;5.50;99.90;;;;;;7369943;19;20022;-71
2023/12/27 10:49:18;;;;;;;27.55;14.35;;;5.50;99.90;;;;;;7371943;19;20580;-70
2023/12/27 10:51:47;;;;;;;24.65;14.82;;;5.50;99.90;;;;;;7377133;19;20018;-70
2023/12/27 10:54:14;;;;;;;29.63;16.65;;;5.50;99.90;;;;;;7376809;19;20014;-70
2023/12/27 10:56:46;;;;;;;27.42;16.50;;;5.50;99.90;;;;;;7379143;19;20011;-69
2023/12/27 10:59:12;;;;;;;36.58;15.88;;;5.50;99.90;;;;;;7374833;19;20030;-66
2023/12/27 11:02:00;;;;;;;26.25;16.33;;;5.50;99.90;;;;;;7377693;19;20014;-68
2023/12/27 11:04:28;;;;;;;29.80;16.63;;;5.50;99.90;;;;;;7378087;19;20060;-69
2023/12/27 11:06:55;;;;;;;31.52;17.42;;;5.50;99.90;;;;;;7376834;19;20010;-69
2023/12/27 11:09:26;;;;;;;29.45;16.08;;;5.50;99.90;;;;;;7375711;19;20034;-66
2023/12/27 11:11:55;;;;;;;25.55;16.52;;;5.50;99.90;;;;;;7374911;19;20058;-66
2023/12/27 11:14:24;;;;;;;25.27;16.98;;;5.50;99.90;;;;;;7371037;19;20057;-65
2023/12/27 11:16:54;;;;;;;28.02;16.00;;;5.50;99.90;;;;;;7369936;19;20027;-66
2023/12/27 11:19:26;;;;;;;24.67;15.60;;;5.50;99.90;;;;;;7375251;19;20029;-65
2023/12/27 11:21:52;;;;;;;;;;;5.50;99.90;;;;;;7373532;19;20033;-65
2023/12/27 11:24:18;;;;;;;34.03;17.20;;;5.50;99.90;;;;;;7371426;19;19926;-65
2023/12/27 11:26:48;;;;;;;30.40;17.92;;;5.40;99.90;;;;;;7373737;19;20013;-66
2023/12/27 11:29:16;;;;;;;27.00;17.42;;;5.40;99.90;;;;;;7371470;19;20026;-67
2023/12/27 11:31:43;;;;;;;32.45;21.17;;;5.40;99.90;;;;;;7373056;19;20018;-67
2023/12/27 11:34:12;;;;;;;28.23;17.65;;;5.50;99.90;;;;;;7367246;19;20046;-66
2023/12/27 11:36:38;;;;;;;35.88;20.52;;;5.40;99.90;;;;;;7369237;19;20658;-65
2023/12/27 11:39:18;;;;;;;29.13;18.40;;;5.50;99.90;;;;;;7368459;19;20608;-65
2023/12/27 11:41:45;;;;;;;36.28;20.80;;;5.40;99.90;;;;;;7370067;19;20962;-66
2023/12/27 11:44:14;;;;;;;36.00;19.40;;;5.40;99.90;;;;;;7369655;19;20015;-66
2023/12/27 11:46:42;;;;;;;30.75;17.75;;;5.50;99.90;;;;;;7368478;19;20022;-65
2023/12/27 11:49:09;;;;;;;29.60;19.90;;;5.50;99.90;;;;;;7368480;19;20098;-65
2023/12/27 11:51:37;;;;;;;27.90;19.63;;;5.50;99.90;;;;;;7369586;19;20019;-66
2023/12/27 11:54:25;;;;;;;31.02;18.65;;;5.50;99.90;;;;;;7366217;19;20050;-68
2023/12/27 11:56:53;;;;;;;29.20;18.23;;;5.50;99.90;;;;;;7372961;19;20030;-67
2023/12/27 11:59:21;;;;;;;25.70;17.30;;;5.50;99.90;;;;;;7370066;19;20678;-66
2023/12/27 12:01:49;;;;;;;32.47;19.45;;;5.60;99.90;;;;;;7371314;19;20098;-68
2023/12/27 12:04:53;;;;;;;35.13;21.52;;;5.60;99.90;;;;;;7369464;19;20090;-66
2023/12/27 12:07:34;;;;;;;26.80;17.58;;;5.60;99.90;;;;;;7373132;19;20026;-66
2023/12/27 12:10:01;;;;;;;28.70;20.98;;;5.60;99.90;;;;;;7367649;19;20022;-66
2023/12/27 12:12:29;;;;;;;30.23;20.92;;;5.70;99.90;;;;;;7371124;19;20033;-66
2023/12/27 12:14:56;;;;;;;28.67;20.52;;;5.70;99.90;;;;;;7369110;19;20481;-68
2023/12/27 12:17:23;;;;;;;25.15;17.50;;;5.70;99.90;;;;;;7370160;19;20828;-67
2023/12/27 12:19:50;;;;;;;30.42;21.40;;;5.70;99.90;;;;;;7369868;19;20022;-68
2023/12/27 12:22:17;;;;;;;36.55;23.67;;;5.70;99.90;;;;;;7369082;19;20124;-68
2023/12/27 12:24:45;;;;;;;33.17;23.95;;;5.70;99.90;;;;;;7374904;19;20039;-69
2023/12/27 12:27:15;;;;;;;35.92;24.40;;;5.80;99.90;;;;;;7370127;19;20022;-66
2023/12/27 12:29:44;;;;;;;34.67;23.05;;;5.80;99.90;;;;;;7367800;19;20132;-65
2023/12/27 12:32:13;;;;;;;31.08;20.02;;;5.90;99.90;;;;;;7371222;19;20651;-66
2023/12/27 12:34:40;;;;;;;38.03;25.02;;;5.80;99.90;;;;;;7373746;19;20026;-66
2023/12/27 12:37:06;;;;;;;33.25;21.20;;;5.90;99.90;;;;;;7369781;19;20046;-65
2023/12/27 12:39:32;;;;;;;35.92;22.55;;;5.90;99.90;;;;;;7370090;19;20042;-68
2023/12/27 12:41:59;;;;;;;35.75;25.42;;;5.90;99.90;;;;;;7372783;19;20090;-69